Latest Coastal Weather Observations for Kingscote

IDS60701

Issued at 6:45 pm CDT Wednesday 22 October 2014 (issued every 10 minutes, with the page automatically refreshed every 10 minutes)

About coastal observations | Map of coastal stations | Coastal observations for SA | Marine services | Other Formats
Station Details ID: 022841 Name: KINGSCOTE AERO Lat: -35.71 Lon: 137.52 Height: 6.23 m
Data from the previous 72 hours. | See also: Recent months at Kingscote
Date/Time
CDT
Temp

°C
Wind Pressure Rain
since 9am
mm
Weather Cloud Vis
km
Sea
Height
m
Swell
Dir
 
Speed
knots
Gust
knots
hPa Trend Height
m
Period
s
Dir
22/06:30pm 16.0 S 18 22 1019.9 - 0.0 - Partly cloudy 10 - - - -
22/06:00pm 17.0 S 18 25 1019.5 - 0.0 - - 10 - - - -
22/05:30pm 17.3 S 17 22 1019.5 - 0.0 - Partly cloudy 10 - - - -
22/05:00pm 17.4 S 17 21 1019.6 - 0.0 - Partly cloudy 10 - - - -
22/04:30pm 18.1 S 18 22 1019.6 - 0.0 - Cloudy 10 - - - -
22/04:00pm 18.4 S 18 22 1019.4 - 0.0 - Cloudy 10 - - - -
22/03:30pm 18.3 S 19 23 1019.5 - 0.0 - Partly cloudy 10 - - - -
22/03:00pm 20.1 S 19 25 1019.4 - 0.0 - Mostly clear 10 - - - -
22/02:30pm 19.7 S 16 20 1019.4 - 0.0 - Partly cloudy 10 - - - -
22/02:00pm 19.7 S 17 22 1019.6 - 0.0 - Partly cloudy 10 - - - -
22/01:30pm 19.3 S 17 21 1019.9 - 0.0 - Partly cloudy 10 - - - -
22/01:06pm 20.0 S 17 23 1019.8 - 0.0 - Partly cloudy 10 - - - -
22/01:00pm 19.5 S 17 22 1019.7 - 0.0 - Partly cloudy 10 - - - -
22/12:30pm 18.9 S 17 22 1020.0 - 0.0 - Cloudy 10 - - - -
22/12:00pm 17.5 SSW 17 23 1020.0 - 0.0 - Cloudy 10 - - - -
22/11:30am 16.9 SSW 18 22 1019.9 - 0.0 - Cloudy 10 - - - -
22/11:01am 18.3 SSW 19 25 1019.7 - 0.0 - Partly cloudy 10 - - - -
22/11:00am 18.3 SSW 19 25 1019.7 - 0.0 - Partly cloudy 10 - - - -
22/10:30am 19.4 S 18 24 1019.5 - 0.0 - - 10 - - - -
22/10:00am 18.8 SSW 15 20 1019.0 - 0.0 - - 10 - - - -
22/09:30am 18.5 S 15 20 1019.0 - 0.0 - - 10 - - - -
22/09:00am 18.2 SSW 15 19 1018.6 - 0.0 - - 10 - - - -
22/08:30am 17.4 SSW 15 19 1018.5 - 0.0 - - 10 - - - -
22/08:00am 16.3 SSW 14 19 1018.3 - 0.0 - - 10 - - - -
22/07:30am 15.2 SSW 10 13 1017.8 - 0.0 - - 10 - - - -
22/07:00am 14.8 SW 11 15 1017.8 - 0.0 - - 10 - - - -
22/06:30am 15.0 SSW 11 15 1017.5 - 0.0 - - 10 - - - -
22/06:00am 14.9 SW 11 18 1017.3 - 0.0 - - 10 - - - -
22/05:30am 15.3 SW 10 13 1017.2 - 0.0 - - 10 - - - -
22/05:00am 15.9 SSW 9 13 1017.3 - 0.0 - - 10 - - - -
22/04:30am 15.8 SSW 9 13 1016.6 - 0.0 - - 10 - - - -
22/04:00am 16.6 SSW 11 12 1016.3 - 0.0 - - 10 - - - -
22/03:30am 17.5 SSW 10 15 1016.0 - 0.0 - - 10 - - - -
22/03:00am 17.9 SW 9 12 1016.1 - 0.0 - - 10 - - - -
22/02:30am 19.0 SSW 9 13 1015.7 - 0.0 - - 10 - - - -
22/02:00am 15.9 N 3 8 1015.0 - 0.0 - - 10 - - - -
22/01:30am 17.1 ESE 7 11 1015.3 - 0.0 - - 10 - - - -
22/01:00am 18.6 N 5 6 1016.1 - 0.0 - - 10 - - - -
22/12:30am 19.6 WSW 7 12 1016.3 - 0.0 - - 10 - - - -
22/12:08am 21.5 N 19 23 1017.3 - 0.0 - - 10 - - - -
22/12:04am 26.9 WNW 7 14 1016.8 - 0.0 - - 10 - - - -
22/12:00am 19.7 NW 7 14 1018.3 - 0.0 - - 10 - - - -
 
Date/Time
CDT
Temp

°C
Wind Pressure Rain
since 9am
mm
Weather Cloud Vis
km
Sea
Height
m
Swell
Dir
 
Speed
knots
Gust
knots
hPa Trend Height
m
Period
s
Dir
21/11:30pm 19.3 S 8 11 1018.0 - 0.0 - - 10 - - - -
21/11:00pm 19.9 WSW 9 13 1019.0 - 0.0 - - 10 - - - -
21/10:30pm 20.5 SSW 14 20 1018.1 - 0.0 - - 10 - - - -
21/10:00pm 22.4 SSE 12 16 1017.1 - 0.0 - - 10 - - - -
21/09:30pm 20.8 SSW 11 14 1017.2 - 0.0 - - 10 - - - -
21/09:00pm 18.8 W 2 7 1016.5 - 0.0 - - 10 - - - -
21/08:30pm 19.5 ENE 2 3 1016.2 - 0.0 - - 10 - - - -
21/08:00pm 21.6 ENE 4 5 1016.1 - 0.0 - - 10 - - - -
21/07:30pm 22.8 E 6 7 1016.0 - 0.0 - - 10 - - - -
21/07:00pm 24.8 E 5 5 1016.2 - 0.0 - - 10 - - - -
21/06:30pm 26.8 ESE 4 5 1016.0 - 0.0 - - 10 - - - -
21/06:00pm 30.4 NE 5 8 1015.9 - 0.0 - - 10 - - - -
21/05:30pm 30.1 NNE 7 10 1016.0 - 0.0 - - 10 - - - -
21/05:00pm 31.6 NE 9 11 1016.0 - 0.0 - - 10 - - - -
21/04:30pm 32.9 NNE 7 10 1015.9 - 0.0 - - 10 - - - -
21/04:00pm 32.8 N 7 11 1016.2 - 0.0 - - 10 - - - -
21/03:30pm 32.6 NNE 9 12 1016.6 - 0.0 - - 10 - - - -
21/03:00pm 31.9 N 9 13 1016.8 - 0.0 - - 10 - - - -
21/02:30pm 31.2 NNE 11 15 1017.2 - 0.0 - - 10 - - - -
21/02:00pm 30.5 NNE 11 16 1017.6 - 0.0 - - 10 - - - -
21/01:30pm 29.6 NNE 12 16 1018.1 - 0.0 - - 10 - - - -
21/01:00pm 29.7 N 12 16 1018.4 - 0.0 - - 10 - - - -
21/12:30pm 28.1 NNE 9 13 1018.7 - 0.0 - - 10 - - - -
21/12:00pm 26.8 NNE 11 15 1019.2 - 0.0 - - 10 - - - -
21/11:30am 25.2 NNE 11 14 1019.6 - 0.0 - - 10 - - - -
21/11:00am 25.5 NNE 11 15 1019.9 - 0.0 - - 10 - - - -
21/10:30am 25.7 NNE 13 19 1019.9 - 0.0 - - 10 - - - -
21/10:00am 26.4 NNE 12 18 1019.9 - 0.0 - - 10 - - - -
21/09:30am 23.7 NE 7 9 1019.8 - 0.0 - - 10 - - - -
21/09:00am 20.1 CALM 0 0 1019.9 - 0.0 - - 10 - - - -
21/08:30am 17.7 CALM 0 0 1019.9 - 0.0 - - 10 - - - -
21/08:00am 14.5 CALM 0 0 1019.7 - 0.0 - - 10 - - - -
21/07:30am 11.6 CALM 0 0 1019.5 - 0.0 - - 10 - - - -
21/07:00am 8.7 CALM 0 0 1019.0 - 0.0 - - 10 - - - -
21/06:30am 8.0 CALM 0 0 1018.9 - 0.0 - - 10 - - - -
21/06:00am 7.7 CALM 0 0 1018.7 - 0.0 - - 10 - - - -
21/05:30am 7.9 CALM 0 0 1018.7 - 0.0 - - 10 - - - -
21/05:00am 7.9 CALM 0 0 1018.8 - 0.0 - - 10 - - - -
21/04:30am 7.6 CALM 0 0 1018.7 - 0.0 - - 10 - - - -
21/04:00am 7.7 CALM 0 0 1018.7 - 0.0 - - 10 - - - -
21/03:30am 7.8 CALM 0 0 1018.9 - 0.0 - - 10 - - - -
21/03:00am 8.2 CALM 0 3 1019.2 - 0.0 - - 10 - - - -
21/02:30am 9.2 NW 4 5 1019.6 - 0.0 - - 10 - - - -
21/02:00am 10.0 WNW 5 5 1019.7 - 0.0 - - 10 - - - -
21/01:30am 10.1 W 5 5 1020.0 - 0.0 - - 10 - - - -
21/01:00am 10.6 SW 4 6 1020.4 - 0.0 - - 10 - - - -
21/12:30am 10.1 WSW 6 7 1020.9 - 0.0 - - 10 - - - -
21/12:00am 10.5 W 6 6 1021.2 - 0.0 - - 10 - - - -
 
Date/Time
CDT
Temp

°C
Wind Pressure Rain
since 9am
mm
Weather Cloud Vis
km
Sea
Height
m
Swell
Dir
 
Speed
knots
Gust
knots
hPa Trend Height
m
Period
s
Dir
20/11:30pm 11.1 W 6 6 1021.5 - 0.0 - - 10 - - - -
20/11:00pm 11.3 WSW 5 6 1021.7 - 0.0 - - 10 - - - -
20/10:30pm 10.7 SSW 5 6 1022.1 - 0.0 - - 10 - - - -
20/10:00pm 10.9 SW 5 6 1022.3 - 0.0 - - 10 - - - -
20/09:30pm 12.1 S 4 5 1022.4 - 0.0 - - 10 - - - -
20/09:00pm 13.7 S 2 6 1022.4 - 0.0 - - 10 - - - -
20/08:30pm 14.4 SSE 7 9 1022.0 - 0.0 - - 10 - - - -
20/08:00pm 15.3 SSE 8 10 1022.0 - 0.0 - - 10 - - - -
20/07:30pm 16.4 SSE 8 9 1021.9 - 0.0 - - 10 - - - -
20/07:00pm 17.8 SSE 9 11 1021.7 - 0.0 - - 10 - - - -
20/06:30pm 18.8 SSE 10 11 1021.5 - 0.0 - - 10 - - - -
20/06:00pm 19.9 SSE 9 13 1021.4 - 0.0 - - 10 - - - -
20/05:30pm 21.1 SSE 10 13 1021.4 - 0.0 - - 10 - - - -
20/05:00pm 21.8 SE 11 14 1021.5 - 0.0 - - 10 - - - -
20/04:30pm 22.1 SE 11 14 1021.7 - 0.0 - - 10 - - - -
20/04:00pm 22.1 SE 11 14 1022.1 - 0.0 - - 10 - - - -
20/03:30pm 21.2 SSE 12 16 1022.4 - 0.0 - - 10 - - - -
20/03:00pm 21.7 SSE 13 17 1022.8 - 0.0 - - 10 - - - -
20/02:30pm 21.2 SE 11 15 1023.2 - 0.0 - - 10 - - - -
20/02:00pm 19.9 SE 11 14 1023.7 - 0.0 - - 10 - - - -
20/01:30pm 20.4 ENE 9 13 1024.0 - 0.0 - - 10 - - - -
20/01:00pm 19.7 ENE 11 13 1024.3 - 0.0 - - 10 - - - -
20/12:30pm 19.6 ENE 12 15 1024.6 - 0.0 - - 10 - - - -
20/12:00pm 19.3 E 12 15 1024.9 - 0.0 - - 10 - - - -
20/11:30am 18.6 E 13 17 1025.2 - 0.0 - - 10 - - - -
20/11:00am 18.6 E 13 17 1025.7 - 0.0 - - 10 - - - -
20/10:30am 18.1 E 13 17 1026.0 - 0.0 - - 10 - - - -
20/10:00am 17.3 E 15 19 1026.2 - 0.0 - - 10 - - - -
20/09:30am 16.7 E 17 19 1026.1 - 0.0 - - 10 - - - -
20/09:00am 15.2 E 15 19 1026.2 - 0.0 - - 10 - - - -
20/08:30am 15.3 E 14 18 1026.4 - 0.0 - - 10 - - - -
20/08:00am 14.1 ESE 13 17 1026.0 - 0.0 - - 10 - - - -
20/07:30am 13.2 ESE 12 16 1025.8 - 0.0 - - 10 - - - -
20/07:00am 12.4 ESE 10 15 1025.8 - 0.0 - - 10 - - - -
20/06:30am 12.4 ESE 11 16 1025.4 - 0.0 - - 10 - - - -
20/06:00am 12.5 ESE 13 17 1025.0 - 0.0 - - 10 - - - -
20/05:30am 12.7 ESE 11 16 1024.9 - 0.0 - Partly cloudy 10 - - - -
20/05:00am 13.1 ESE 13 18 1024.9 - 0.0 - Partly cloudy 10 - - - -
20/04:30am 13.3 ESE 16 21 1024.9 - 0.0 - Partly cloudy 10 - - - -
20/04:00am 13.5 ESE 16 22 1024.8 - 0.0 - Partly cloudy 10 - - - -
20/03:30am 13.4 ESE 15 21 1024.8 - 0.0 - Partly cloudy 10 - - - -
20/03:00am 13.7 ESE 11 16 1024.9 - 0.0 - Partly cloudy 10 - - - -
20/02:30am 14.0 ESE 15 22 1024.9 - 0.0 - Partly cloudy 10 - - - -
20/02:00am 13.7 ESE 14 19 1025.3 - 0.0 - Partly cloudy 10 - - - -
20/01:30am 13.8 SE 14 24 1025.4 - 0.0 - Partly cloudy 10 - - - -
20/01:00am 13.7 SE 14 20 1025.4 - 0.0 - Partly cloudy 10 - - - -
20/12:30am 13.6 SE 14 19 1025.4 - 0.0 - Partly cloudy 10 - - - -
20/12:00am 13.8 SE 15 22 1025.6 - 0.0 - Mostly clear 10 - - - -
 
Date/Time
CDT
Temp

°C
Wind Pressure Rain
since 9am
mm
Weather Cloud Vis
km
Sea
Height
m
Swell
Dir
 
Speed
knots
Gust
knots
hPa Trend Height
m
Period
s
Dir
19/11:30pm 13.8 SE 14 21 1025.7 - 0.0 - Partly cloudy 10 - - - -
19/11:00pm 13.8 SE 16 23 1025.8 - 0.0 - Partly cloudy 10 - - - -
19/10:30pm 14.1 SE 15 25 1025.8 - 0.0 - Partly cloudy 10 - - - -
19/10:29pm 14.1 SE 15 25 1025.8 - 0.0 - Partly cloudy 10 - - - -
19/10:00pm 14.2 SE 13 19 1025.9 - 0.0 - Partly cloudy 10 - - - -
19/09:30pm 14.2 SE 16 23 1025.7 - 0.0 - Partly cloudy 10 - - - -
19/09:00pm 14.4 SE 14 23 1025.6 - 0.0 - Partly cloudy 10 - - - -
19/08:30pm 14.7 SE 16 23 1025.4 - 0.0 - Cloudy 10 - - - -
19/08:00pm 15.0 SE 17 25 1025.0 - 0.0 - Cloudy 10 - - - -
19/07:30pm 15.2 SE 17 24 1024.5 - 0.0 - Partly cloudy 10 - - - -
19/07:00pm 15.4 SE 15 21 1024.4 - 0.0 - Partly cloudy 10 - - - -

Other Formats:

Comma delimited format used in spreadsheet applications
http://www.bom.gov.au/fwo/IDS60701/IDS60701.95807.axf

JavaScript Object Notation format (JSON) in row-major order
http://www.bom.gov.au/fwo/IDS60701/IDS60701.95807.json